United Tenorio — A8UB9 — position and weather

sailwx.info

Track history (hours):
 
Tides and Currents Weather Stations Pressure Air Temp Water Temp Dewpoint Dewpoint Depression Visibility Wind Speed Wind Dir Waves Ship Positions

United Tenorio

Last reported at 2014-Dec-26 18:33 UTC. Time now 2014-Dec-26 19:14 UTC.
Position N 51°53' E 004°27'.

Length 174 m; draft 9.4 m.

Type: Cargo ship. MMSI: 636091880.

Date/timePositionNaut miles runAvg speedWind from/ knotsBaromVisibWave heightAir tempDewpointWater temp
2014-Dec-26 18:33N 51°53' E 004°27'0 0.0
2014-Dec-26 17:33N 51°53' E 004°27'0 0.0
2014-Dec-26 16:33N 51°53' E 004°27'0 0.0
2014-Dec-26 15:33N 51°53' E 004°27'0 0.0
2014-Dec-26 14:33N 51°53' E 004°27'0 0.0
2014-Dec-26 13:33N 51°53' E 004°27'0 0.0
2014-Dec-26 12:33N 51°53' E 004°27'0 0.0
2014-Dec-26 11:33N 51°53' E 004°27'0 0.0
2014-Dec-26 10:33N 51°53' E 004°27'0 0.0
2014-Dec-26 09:33N 51°53' E 004°27'0 0.0
2014-Dec-26 08:33N 51°53' E 004°27'0 0.0
2014-Dec-26 07:33N 51°53' E 004°27'0 0.0
2014-Dec-26 06:33N 51°53' E 004°27'0 0.0
2014-Dec-26 05:33N 51°53' E 004°27'0 0.0
2014-Dec-26 04:30N 51°53' E 004°27'0 0.0
2014-Dec-26 03:33N 51°53' E 004°27'0 0.0
2014-Dec-26 02:33N 51°53' E 004°27'0 0.0
2014-Dec-26 01:33N 51°53' E 004°27'0 0.0
2014-Dec-26 00:33N 51°53' E 004°27'0 0.0
2014-Dec-25 23:33N 51°53' E 004°27'0 0.0
2014-Dec-25 22:33N 51°53' E 004°27'0 0.0
2014-Dec-25 21:33N 51°53' E 004°27'0 0.0
2014-Dec-25 20:33N 51°53' E 004°27'0 0.0
2014-Dec-25 19:33N 51°53' E 004°27'0 0.0
2014-Dec-25 18:33N 51°53' E 004°27'0 0.0
2014-Dec-25 17:33N 51°53' E 004°27'0 0.0
2014-Dec-25 16:33N 51°53' E 004°27'0 0.0
2014-Dec-25 15:33N 51°53' E 004°27'0 0.0
2014-Dec-25 14:33N 51°53' E 004°27'0 0.0
2014-Dec-25 13:33N 51°53' E 004°27'2 2.2
2014-Dec-25 12:34N 51°54' E 004°24'7 7.4
2014-Dec-25 11:33N 51°56' E 004°12'8 8.0
2014-Dec-25 10:33N 51°60' E 004°01'6 6.1
2014-Dec-25 09:33N 52°01' E 003°51'9 8.3
2014-Dec-25 08:25N 51°57' E 003°36'43 9.9
2014-Dec-25 04:06N 51°43' E 002°31'911.5
2014-Dec-25 03:18N 51°36' E 002°22'911.6
2014-Dec-25 02:33N 51°29' E 002°12'1211.6
2014-Dec-25 01:33N 51°21' E 002°00'1111.3
2014-Dec-25 00:34N 51°12' E 001°48'1010.1
2014-Dec-24 23:33N 51°04' E 001°38'9 8.5
2014-Dec-24 22:33N 50°57' E 001°30'  
2014-Dec-20 16:23N 39°12' W 009°51'7 8.2
2014-Dec-20 15:33N 39°05' W 009°51'17 8.1
2014-Dec-20 13:29N 38°48' W 009°52'7 8.0
2014-Dec-20 12:33N 38°41' W 009°51'8 7.7
2014-Dec-20 11:33N 38°33' W 009°49'7 7.4
2014-Dec-20 10:33N 38°26' W 009°47'7 7.4
2014-Dec-20 09:32N 38°19' W 009°45'9 7.9
2014-Dec-20 08:23N 38°10' W 009°42'10 9.2
2014-Dec-20 07:21N 38°01' W 009°39'18 8.3
2014-Dec-20 05:13N 37°43' W 009°34'6 8.2
2014-Dec-20 04:32N 37°38' W 009°32'9 8.4
2014-Dec-20 03:28N 37°29' W 009°30'25 8.5
2014-Dec-20 00:28N 37°04' W 009°23'8 8.7
2014-Dec-19 23:33N 36°57' W 009°20'24 8.1
2014-Dec-19 20:33N 36°43' W 008°55'168 7.3
2014-Dec-18 21:25N 35°58' W 005°34'8 7.8
2014-Dec-18 20:22N 36°00' W 005°24'5 6.7
2014-Dec-18 19:33N 36°01' W 005°18'7 6.7
2014-Dec-18 18:33N 36°03' W 005°10'  
Track history (hours):
 
Tides and Currents Weather Stations Pressure Air Temp Water Temp Dewpoint Dewpoint Depression Visibility Wind Speed Wind Dir Waves Ship Positions

United Tenorio

Last reported at 2014-Dec-26 18:33 UTC. Time now 2014-Dec-26 19:14 UTC.
Position N 51°53' E 004°27'.

Length 174 m; draft 9.4 m.

Type: Cargo ship. MMSI: 636091880.

Date/timePositionNaut miles runAvg speedWind from/ knotsBaromVisibWave heightAir tempDewpointWater temp
2014-Dec-26 18:33N 51°53' E 004°27'0 0.0
2014-Dec-26 17:33N 51°53' E 004°27'0 0.0
2014-Dec-26 16:33N 51°53' E 004°27'0 0.0
2014-Dec-26 15:33N 51°53' E 004°27'0 0.0
2014-Dec-26 14:33N 51°53' E 004°27'0 0.0
2014-Dec-26 13:33N 51°53' E 004°27'0 0.0
2014-Dec-26 12:33N 51°53' E 004°27'0 0.0
2014-Dec-26 11:33N 51°53' E 004°27'0 0.0
2014-Dec-26 10:33N 51°53' E 004°27'0 0.0
2014-Dec-26 09:33N 51°53' E 004°27'0 0.0
2014-Dec-26 08:33N 51°53' E 004°27'0 0.0
2014-Dec-26 07:33N 51°53' E 004°27'0 0.0
2014-Dec-26 06:33N 51°53' E 004°27'0 0.0
2014-Dec-26 05:33N 51°53' E 004°27'0 0.0
2014-Dec-26 04:30N 51°53' E 004°27'0 0.0
2014-Dec-26 03:33N 51°53' E 004°27'0 0.0
2014-Dec-26 02:33N 51°53' E 004°27'0 0.0
2014-Dec-26 01:33N 51°53' E 004°27'0 0.0
2014-Dec-26 00:33N 51°53' E 004°27'0 0.0
2014-Dec-25 23:33N 51°53' E 004°27'0 0.0
2014-Dec-25 22:33N 51°53' E 004°27'0 0.0
2014-Dec-25 21:33N 51°53' E 004°27'0 0.0
2014-Dec-25 20:33N 51°53' E 004°27'0 0.0
2014-Dec-25 19:33N 51°53' E 004°27'0 0.0
2014-Dec-25 18:33N 51°53' E 004°27'0 0.0
2014-Dec-25 17:33N 51°53' E 004°27'0 0.0
2014-Dec-25 16:33N 51°53' E 004°27'0 0.0
2014-Dec-25 15:33N 51°53' E 004°27'0 0.0
2014-Dec-25 14:33N 51°53' E 004°27'0 0.0
2014-Dec-25 13:33N 51°53' E 004°27'2 2.2
2014-Dec-25 12:34N 51°54' E 004°24'7 7.4
2014-Dec-25 11:33N 51°56' E 004°12'8 8.0
2014-Dec-25 10:33N 51°60' E 004°01'6 6.1
2014-Dec-25 09:33N 52°01' E 003°51'9 8.3
2014-Dec-25 08:25N 51°57' E 003°36'43 9.9
2014-Dec-25 04:06N 51°43' E 002°31'911.5
2014-Dec-25 03:18N 51°36' E 002°22'911.6
2014-Dec-25 02:33N 51°29' E 002°12'1211.6
2014-Dec-25 01:33N 51°21' E 002°00'1111.3
2014-Dec-25 00:34N 51°12' E 001°48'1010.1
2014-Dec-24 23:33N 51°04' E 001°38'9 8.5
2014-Dec-24 22:33N 50°57' E 001°30'  
2014-Dec-20 16:23N 39°12' W 009°51'7 8.2
2014-Dec-20 15:33N 39°05' W 009°51'17 8.1
2014-Dec-20 13:29N 38°48' W 009°52'7 8.0
2014-Dec-20 12:33N 38°41' W 009°51'8 7.7
2014-Dec-20 11:33N 38°33' W 009°49'7 7.4
2014-Dec-20 10:33N 38°26' W 009°47'7 7.4
2014-Dec-20 09:32N 38°19' W 009°45'9 7.9
2014-Dec-20 08:23N 38°10' W 009°42'10 9.2
2014-Dec-20 07:21N 38°01' W 009°39'18 8.3
2014-Dec-20 05:13N 37°43' W 009°34'6 8.2
2014-Dec-20 04:32N 37°38' W 009°32'9 8.4
2014-Dec-20 03:28N 37°29' W 009°30'25 8.5
2014-Dec-20 00:28N 37°04' W 009°23'8 8.7
2014-Dec-19 23:33N 36°57' W 009°20'24 8.1
2014-Dec-19 20:33N 36°43' W 008°55'168 7.3
2014-Dec-18 21:25N 35°58' W 005°34'8 7.8
2014-Dec-18 20:22N 36°00' W 005°24'5 6.7
2014-Dec-18 19:33N 36°01' W 005°18'7 6.7
2014-Dec-18 18:33N 36°03' W 005°10'  

Dump ship's entire track history